createdAt,value
2023-01-06T00:02:08.987Z,0.36
2023-01-06T00:07:12.038Z,0.33
2023-01-06T00:12:15.176Z,0.32
2023-01-06T00:17:18.385Z,0.30
2023-01-06T00:22:21.338Z,0.34
2023-01-06T00:27:24.423Z,0.32
2023-01-06T00:32:27.354Z,0.24
2023-01-06T00:37:30.414Z,0.16
2023-01-06T00:42:33.302Z,0.04
2023-01-06T00:47:36.205Z,0.01
2023-01-06T00:52:39.207Z,-0.06
2023-01-06T00:57:42.191Z,-0.06
2023-01-06T01:02:45.382Z,-0.02
2023-01-06T01:07:48.388Z,-0.06
2023-01-06T01:12:53.229Z,-0.13
2023-01-06T01:17:56.130Z,-0.10
2023-01-06T01:22:59.043Z,-0.07
2023-01-06T01:28:01.998Z,0.00
2023-01-06T01:33:04.942Z,0.04
2023-01-06T01:38:07.919Z,0.05
2023-01-06T01:43:12.578Z,0.07
2023-01-06T01:48:32.805Z,0.04
2023-01-06T01:53:44.518Z,0.13
2023-01-06T01:59:02.556Z,0.09
2023-01-06T02:04:06.594Z,0.05
2023-01-06T02:10:03.402Z,-0.02
2023-01-06T02:15:31.846Z,0.01
2023-01-06T02:20:46.829Z,0.03
2023-01-06T02:26:15.436Z,0.08
2023-01-06T02:31:45.446Z,0.07
2023-01-06T02:37:28.685Z,0.06
2023-01-06T02:43:01.464Z,-0.02
2023-01-06T02:48:26.761Z,-0.05
2023-01-06T02:53:42.853Z,-0.05
2023-01-06T02:59:05.333Z,-0.06
2023-01-06T03:04:23.391Z,-0.03
2023-01-06T03:09:35.751Z,-0.12
2023-01-06T03:14:47.314Z,-0.17
2023-01-06T03:19:50.887Z,-0.21
2023-01-06T03:24:54.482Z,-0.32
2023-01-06T03:29:57.910Z,-0.45
2023-01-06T03:35:46.977Z,-0.53
2023-01-06T03:41:22.368Z,-0.51
2023-01-06T03:46:49.044Z,-0.54
2023-01-06T03:51:57.287Z,-0.76
2023-01-06T03:57:27.000Z,-0.84
2023-01-06T04:02:30.639Z,-0.85
2023-01-06T04:07:33.622Z,-0.85
2023-01-06T04:12:39.792Z,-0.82
2023-01-06T04:17:44.507Z,-0.83
2023-01-06T04:22:47.566Z,-0.80
2023-01-06T04:27:51.374Z,-0.78
2023-01-06T04:32:54.338Z,-0.73
2023-01-06T04:37:57.252Z,-0.72
2023-01-06T04:43:06.229Z,-0.71
2023-01-06T04:48:13.139Z,-0.68
2023-01-06T04:53:16.121Z,-0.68
2023-01-06T04:58:19.131Z,-0.70
2023-01-06T05:03:22.071Z,-0.66
2023-01-06T05:08:25.110Z,-0.56
2023-01-06T05:13:31.011Z,-0.48
2023-01-06T05:18:34.044Z,-0.57
2023-01-06T05:23:38.911Z,-0.67
2023-01-06T05:28:41.859Z,-0.78
2023-01-06T05:33:45.496Z,-0.68
2023-01-06T05:38:53.987Z,-0.68
2023-01-06T05:43:58.203Z,-0.69
2023-01-06T05:49:02.272Z,-0.61
2023-01-06T05:54:09.105Z,-0.67
2023-01-06T05:59:12.068Z,-0.77
2023-01-06T06:04:15.046Z,-0.84
2023-01-06T06:09:17.992Z,-0.85
2023-01-06T06:14:21.391Z,-0.92
2023-01-06T06:19:24.506Z,-1.01
2023-01-06T06:24:27.530Z,-1.04
2023-01-06T06:29:30.595Z,-1.05
2023-01-06T06:34:33.784Z,-1.09
2023-01-06T06:39:36.749Z,-1.18
2023-01-06T06:44:39.710Z,-1.24
2023-01-06T06:49:42.753Z,-1.29
2023-01-06T06:54:45.763Z,-1.28
2023-01-06T06:59:48.734Z,-1.35
2023-01-06T07:04:51.742Z,-1.44
2023-01-06T07:09:54.692Z,-1.48
2023-01-06T07:14:57.567Z,-1.53
2023-01-06T07:20:00.622Z,-1.52
2023-01-06T07:25:08.159Z,-1.56
2023-01-06T07:30:12.582Z,-1.56
2023-01-06T07:35:15.906Z,-1.54
2023-01-06T07:40:19.146Z,-1.45
2023-01-06T07:45:22.127Z,-1.38
2023-01-06T07:50:26.547Z,-1.35
2023-01-06T07:55:30.360Z,-1.39
2023-01-06T08:00:34.517Z,-1.47
2023-01-06T08:05:39.268Z,-1.47
2023-01-06T08:10:43.223Z,-1.45
2023-01-06T08:15:48.741Z,-1.47
2023-01-06T08:21:10.820Z,-1.42
2023-01-06T08:26:17.824Z,-1.22
2023-01-06T08:31:22.783Z,-1.15
2023-01-06T08:36:27.032Z,-1.20
2023-01-06T08:41:29.883Z,-1.20
2023-01-06T08:46:33.764Z,-1.15
2023-01-06T08:51:36.798Z,-0.98
2023-01-06T08:56:40.532Z,-0.74
2023-01-06T09:01:44.244Z,-0.50
2023-01-06T09:06:50.002Z,-0.41
2023-01-06T09:11:53.048Z,-0.41
2023-01-06T09:16:55.953Z,-0.27
2023-01-06T09:22:00.324Z,-0.13
2023-01-06T09:27:04.127Z,0.09
2023-01-06T09:32:07.435Z,0.36
2023-01-06T09:37:10.908Z,0.49
2023-01-06T09:42:41.097Z,0.63
2023-01-06T09:47:53.905Z,0.58
2023-01-06T09:53:03.676Z,0.64
2023-01-06T09:58:23.089Z,0.69
2023-01-06T10:03:27.345Z,0.50
2023-01-06T10:08:54.056Z,0.39
2023-01-06T10:14:24.223Z,0.32
2023-01-06T10:20:01.010Z,0.12
2023-01-06T10:25:33.101Z,0.04
2023-01-06T10:30:46.080Z,0.02
2023-01-06T10:35:49.620Z,0.05
2023-01-06T10:40:56.200Z,0.01
2023-01-06T10:46:00.498Z,-0.05
2023-01-06T10:51:45.653Z,-0.01
2023-01-06T10:57:02.770Z,0.02
2023-01-06T11:02:06.344Z,0.09
2023-01-06T11:07:14.871Z,0.16
2023-01-06T11:12:28.767Z,0.19
2023-01-06T11:17:32.780Z,0.35
2023-01-06T11:22:41.512Z,0.47
2023-01-06T11:27:44.689Z,0.43
2023-01-06T11:32:47.785Z,0.36
2023-01-06T11:37:58.700Z,0.41
2023-01-06T11:43:10.320Z,0.46
2023-01-06T11:48:33.134Z,0.34
2023-01-06T11:53:39.675Z,0.30
2023-01-06T11:59:10.434Z,0.42
2023-01-06T12:04:33.449Z,0.31
2023-01-06T12:09:41.721Z,0.27
2023-01-06T12:14:46.434Z,0.31
2023-01-06T12:20:05.936Z,0.40
2023-01-06T12:25:24.571Z,0.43
2023-01-06T12:30:50.920Z,0.50
2023-01-06T12:35:59.769Z,0.63
2023-01-06T12:41:19.167Z,0.68
2023-01-06T12:46:34.694Z,0.64
2023-01-06T12:51:44.313Z,0.56
2023-01-06T12:57:04.835Z,0.46
2023-01-06T13:02:17.118Z,0.36
2023-01-06T13:07:44.047Z,0.34
2023-01-06T13:13:31.885Z,0.33
2023-01-06T13:18:51.471Z,0.27
2023-01-06T13:24:36.008Z,0.17
2023-01-06T13:30:15.768Z,0.12
2023-01-06T13:35:28.990Z,0.15
2023-01-06T13:40:38.245Z,0.20
2023-01-06T13:45:46.279Z,0.19
2023-01-06T13:50:50.465Z,0.17
2023-01-06T13:56:15.067Z,0.17
2023-01-06T14:01:18.126Z,0.15
2023-01-06T14:06:23.896Z,0.08
2023-01-06T14:11:35.592Z,0.08
2023-01-06T14:16:48.931Z,0.14
2023-01-06T14:22:11.959Z,0.15
2023-01-06T14:27:14.912Z,0.10
2023-01-06T14:32:17.740Z,0.11
2023-01-06T14:37:28.006Z,0.14
2023-01-06T14:42:42.252Z,0.10
2023-01-06T14:47:50.736Z,0.05
2023-01-06T14:53:02.807Z,-0.00
2023-01-06T14:58:05.841Z,-0.01
2023-01-06T15:03:22.933Z,0.00
2023-01-06T15:08:26.188Z,0.08
2023-01-06T15:13:31.725Z,0.09
2023-01-06T15:18:36.995Z,0.05
2023-01-06T15:23:47.600Z,-0.01
2023-01-06T15:29:03.004Z,-0.20
2023-01-06T15:34:12.967Z,-0.35
2023-01-06T15:39:23.680Z,-0.41
2023-01-06T15:44:29.764Z,-0.48
2023-01-06T15:49:57.018Z,-0.55
2023-01-06T15:55:04.905Z,-0.62
2023-01-06T16:00:19.223Z,-0.64
2023-01-06T16:05:43.453Z,-0.66
2023-01-06T16:10:46.745Z,-0.71
2023-01-06T16:15:58.820Z,-0.78
2023-01-06T16:21:20.032Z,-0.86
2023-01-06T16:26:27.895Z,-0.95
2023-01-06T16:31:38.583Z,-1.06
2023-01-06T16:36:41.772Z,-1.11
2023-01-06T16:42:30.621Z,-1.14
2023-01-06T16:47:33.599Z,-1.13
2023-01-06T16:52:36.525Z,-1.14
2023-01-06T16:57:40.946Z,-1.21
2023-01-06T17:02:44.505Z,-1.28
2023-01-06T17:07:48.729Z,-1.35
2023-01-06T17:13:20.313Z,-1.37
2023-01-06T17:18:33.845Z,-1.39
2023-01-06T17:23:46.780Z,-1.39
2023-01-06T17:28:53.240Z,-1.42
2023-01-06T17:34:01.751Z,-1.42
2023-01-06T17:39:28.419Z,-1.40
2023-01-06T17:44:39.885Z,-1.44
2023-01-06T17:50:35.814Z,-1.46
2023-01-06T17:55:49.761Z,-1.42
2023-01-06T18:00:52.866Z,-1.46
2023-01-06T18:06:23.328Z,-1.51
2023-01-06T18:11:34.356Z,-1.54
2023-01-06T18:16:40.827Z,-1.53
2023-01-06T18:21:45.794Z,-1.48
2023-01-06T18:26:54.340Z,-1.46
2023-01-06T18:32:22.795Z,-1.45
2023-01-06T18:37:34.139Z,-1.38
2023-01-06T18:42:51.681Z,-1.43
2023-01-06T18:48:00.689Z,-1.44
2023-01-06T18:53:15.761Z,-1.46
2023-01-06T18:58:52.711Z,-1.44
2023-01-06T19:04:33.006Z,-1.46
2023-01-06T19:09:48.635Z,-1.47
2023-01-06T19:14:53.728Z,-1.46
2023-01-06T19:20:00.723Z,-1.47
2023-01-06T19:25:28.195Z,-1.45
2023-01-06T19:30:41.498Z,-1.41
2023-01-06T19:35:44.623Z,-1.37
2023-01-06T19:40:47.542Z,-1.39
2023-01-06T19:45:50.475Z,-1.26
2023-01-06T19:51:21.332Z,-1.14
2023-01-06T19:56:35.008Z,-1.12
2023-01-06T20:01:38.225Z,-1.08
2023-01-06T20:06:41.406Z,-1.09
2023-01-06T20:11:44.596Z,-1.07
2023-01-06T20:16:48.464Z,-1.02
2023-01-06T20:21:51.385Z,-0.95
2023-01-06T20:26:54.297Z,-0.87
2023-01-06T20:31:57.314Z,-0.89
2023-01-06T20:37:00.214Z,-0.87
2023-01-06T20:42:04.444Z,-0.85
2023-01-06T20:47:07.966Z,-0.81
2023-01-06T20:52:10.929Z,-0.80
2023-01-06T20:57:13.929Z,-0.79
2023-01-06T21:02:17.164Z,-0.79
2023-01-06T21:07:20.179Z,-0.76
2023-01-06T21:12:23.098Z,-0.73
2023-01-06T21:17:25.999Z,-0.70
2023-01-06T21:22:28.972Z,-0.66
2023-01-06T21:27:32.650Z,-0.61
2023-01-06T21:32:36.199Z,-0.51
2023-01-06T21:37:39.318Z,-0.47
2023-01-06T21:43:00.626Z,-0.45
2023-01-06T21:48:04.694Z,-0.49
2023-01-06T21:53:09.396Z,-0.52
2023-01-06T21:58:12.454Z,-0.50
2023-01-06T22:03:15.746Z,-0.52
2023-01-06T22:08:19.228Z,-0.50
2023-01-06T22:13:23.678Z,-0.46
2023-01-06T22:18:26.942Z,-0.42
2023-01-06T22:23:32.768Z,-0.40
2023-01-06T22:28:35.822Z,-0.35
2023-01-06T22:33:38.712Z,-0.36
2023-01-06T22:38:41.622Z,-0.32
2023-01-06T22:43:44.586Z,-0.23
2023-01-06T22:48:47.489Z,-0.16
2023-01-06T22:53:50.453Z,-0.11
2023-01-06T22:58:53.456Z,-0.11
2023-01-06T23:03:56.343Z,-0.11
2023-01-06T23:09:01.013Z,-0.06
2023-01-06T23:14:04.187Z,-0.00
2023-01-06T23:19:10.534Z,0.05
2023-01-06T23:24:13.575Z,0.09
2023-01-06T23:29:16.641Z,0.13
2023-01-06T23:34:19.675Z,0.16
2023-01-06T23:39:22.567Z,0.19
2023-01-06T23:44:25.415Z,0.21
2023-01-06T23:49:28.284Z,0.27
2023-01-06T23:54:31.174Z,0.31
2023-01-06T23:59:34.091Z,0.33
